sensor_id;sensor_type;location;lat;lon;timestamp;P1;P2;P0
31330;PMS5003;34067;39.548;-76.088;2023-02-22T00:01:35;5;5;
31330;PMS5003;34067;39.548;-76.088;2023-02-22T00:04:04;5;4;
31330;PMS5003;34067;39.548;-76.088;2023-02-22T00:06:33;3;3;
31330;PMS5003;34067;39.548;-76.088;2023-02-22T00:09:02;2;2;
31330;PMS5003;34067;39.548;-76.088;2023-02-22T00:11:30;3;3;
31330;PMS5003;34067;39.548;-76.088;2023-02-22T00:13:59;3;3;
31330;PMS5003;34067;39.548;-76.088;2023-02-22T00:16:27;3;3;
31330;PMS5003;34067;39.548;-76.088;2023-02-22T00:18:55;2;2;
31330;PMS5003;34067;39.548;-76.088;2023-02-22T00:21:23;2;2;
31330;PMS5003;34067;39.548;-76.088;2023-02-22T00:23:51;1;1;
31330;PMS5003;34067;39.548;-76.088;2023-02-22T00:26:20;2;2;
31330;PMS5003;34067;39.548;-76.088;2023-02-22T00:28:50;1;1;
31330;PMS5003;34067;39.548;-76.088;2023-02-22T00:31:20;1;1;
31330;PMS5003;34067;39.548;-76.088;2023-02-22T00:33:49;2;2;
31330;PMS5003;34067;39.548;-76.088;2023-02-22T00:36:17;2;2;
31330;PMS5003;34067;39.548;-76.088;2023-02-22T00:38:45;4;3;
31330;PMS5003;34067;39.548;-76.088;2023-02-22T00:41:13;2;2;
31330;PMS5003;34067;39.548;-76.088;2023-02-22T00:43:41;2;2;
31330;PMS5003;34067;39.548;-76.088;2023-02-22T00:46:09;1;1;
31330;PMS5003;34067;39.548;-76.088;2023-02-22T00:48:39;2;2;
31330;PMS5003;34067;39.548;-76.088;2023-02-22T00:51:07;1;1;
31330;PMS5003;34067;39.548;-76.088;2023-02-22T00:53:36;1;1;
31330;PMS5003;34067;39.548;-76.088;2023-02-22T00:56:04;2;2;
31330;PMS5003;34067;39.548;-76.088;2023-02-22T00:58:33;3;3;
31330;PMS5003;34067;39.548;-76.088;2023-02-22T01:01:03;2;2;
31330;PMS5003;34067;39.548;-76.088;2023-02-22T01:03:30;2;2;
31330;PMS5003;34067;39.548;-76.088;2023-02-22T01:05:59;2;2;
31330;PMS5003;34067;39.548;-76.088;2023-02-22T01:08:27;3;2;
31330;PMS5003;34067;39.548;-76.088;2023-02-22T01:10:55;1;1;
31330;PMS5003;34067;39.548;-76.088;2023-02-22T01:13:23;3;2;
31330;PMS5003;34067;39.548;-76.088;2023-02-22T01:15:52;3;3;
31330;PMS5003;34067;39.548;-76.088;2023-02-22T01:18:20;2;2;
31330;PMS5003;34067;39.548;-76.088;2023-02-22T01:20:48;3;3;
31330;PMS5003;34067;39.548;-76.088;2023-02-22T01:23:17;2;2;
31330;PMS5003;34067;39.548;-76.088;2023-02-22T01:25:45;4;3;
31330;PMS5003;34067;39.548;-76.088;2023-02-22T01:28:13;2;2;
31330;PMS5003;34067;39.548;-76.088;2023-02-22T01:30:41;3;3;
31330;PMS5003;34067;39.548;-76.088;2023-02-22T01:33:09;3;3;
31330;PMS5003;34067;39.548;-76.088;2023-02-22T01:35:37;3;3;
31330;PMS5003;34067;39.548;-76.088;2023-02-22T01:38:06;4;4;
31330;PMS5003;34067;39.548;-76.088;2023-02-22T01:40:35;3;3;
31330;PMS5003;34067;39.548;-76.088;2023-02-22T01:43:12;2;2;
31330;PMS5003;34067;39.548;-76.088;2023-02-22T01:45:44;3;3;
31330;PMS5003;34067;39.548;-76.088;2023-02-22T01:48:19;2;2;
31330;PMS5003;34067;39.548;-76.088;2023-02-22T01:50:55;1;1;
31330;PMS5003;34067;39.548;-76.088;2023-02-22T01:53:28;2;2;
31330;PMS5003;34067;39.548;-76.088;2023-02-22T01:56:00;2;2;
31330;PMS5003;34067;39.548;-76.088;2023-02-22T01:58:30;2;2;
31330;PMS5003;34067;39.548;-76.088;2023-02-22T02:01:01;1;1;
31330;PMS5003;34067;39.548;-76.088;2023-02-22T02:03:31;2;2;
31330;PMS5003;34067;39.548;-76.088;2023-02-22T02:06:04;4;3;
31330;PMS5003;34067;39.548;-76.088;2023-02-22T02:08:39;2;2;
31330;PMS5003;34067;39.548;-76.088;2023-02-22T02:11:15;2;2;
31330;PMS5003;34067;39.548;-76.088;2023-02-22T02:13:46;1;1;
31330;PMS5003;34067;39.548;-76.088;2023-02-22T02:16:16;1;1;
31330;PMS5003;34067;39.548;-76.088;2023-02-22T02:18:44;2;2;
31330;PMS5003;34067;39.548;-76.088;2023-02-22T02:21:24;1;1;
31330;PMS5003;34067;39.548;-76.088;2023-02-22T02:24:13;1;1;
31330;PMS5003;34067;39.548;-76.088;2023-02-22T02:26:59;1;1;
31330;PMS5003;34067;39.548;-76.088;2023-02-22T02:29:44;2;2;
31330;PMS5003;34067;39.548;-76.088;2023-02-22T02:32:43;1;1;
31330;PMS5003;34067;39.548;-76.088;2023-02-22T02:35:18;1;1;
31330;PMS5003;34067;39.548;-76.088;2023-02-22T02:37:54;5;3;
31330;PMS5003;34067;39.548;-76.088;2023-02-22T02:40:30;3;3;
31330;PMS5003;34067;39.548;-76.088;2023-02-22T02:43:06;3;3;
31330;PMS5003;34067;39.548;-76.088;2023-02-22T02:45:42;2;2;
31330;PMS5003;34067;39.548;-76.088;2023-02-22T02:48:16;1;1;
31330;PMS5003;34067;39.548;-76.088;2023-02-22T02:50:49;4;4;
31330;PMS5003;34067;39.548;-76.088;2023-02-22T02:53:20;8;8;
31330;PMS5003;34067;39.548;-76.088;2023-02-22T02:55:52;14;14;
31330;PMS5003;34067;39.548;-76.088;2023-02-22T02:58:22;1;1;
31330;PMS5003;34067;39.548;-76.088;2023-02-22T03:00:52;2;1;
31330;PMS5003;34067;39.548;-76.088;2023-02-22T03:04:31;1;1;
31330;PMS5003;34067;39.548;-76.088;2023-02-22T03:07:15;1;1;
31330;PMS5003;34067;39.548;-76.088;2023-02-22T03:09:58;2;2;
31330;PMS5003;34067;39.548;-76.088;2023-02-22T03:12:41;2;2;
31330;PMS5003;34067;39.548;-76.088;2023-02-22T03:15:18;2;2;
31330;PMS5003;34067;39.548;-76.088;2023-02-22T03:17:58;3;3;
31330;PMS5003;34067;39.548;-76.088;2023-02-22T03:20:40;1;1;
31330;PMS5003;34067;39.548;-76.088;2023-02-22T03:23:19;3;2;
31330;PMS5003;34067;39.548;-76.088;2023-02-22T03:25:52;2;2;
31330;PMS5003;34067;39.548;-76.088;2023-02-22T03:28:24;2;1;
31330;PMS5003;34067;39.548;-76.088;2023-02-22T03:30:56;1;1;
31330;PMS5003;34067;39.548;-76.088;2023-02-22T03:33:29;2;2;
31330;PMS5003;34067;39.548;-76.088;2023-02-22T03:36:03;2;2;
31330;PMS5003;34067;39.548;-76.088;2023-02-22T03:38:38;2;2;
31330;PMS5003;34067;39.548;-76.088;2023-02-22T03:41:09;3;2;
31330;PMS5003;34067;39.548;-76.088;2023-02-22T03:43:41;2;2;
31330;PMS5003;34067;39.548;-76.088;2023-02-22T03:46:14;2;2;
31330;PMS5003;34067;39.548;-76.088;2023-02-22T03:48:45;2;2;
31330;PMS5003;34067;39.548;-76.088;2023-02-22T03:51:19;2;1;
31330;PMS5003;34067;39.548;-76.088;2023-02-22T03:53:48;1;1;
31330;PMS5003;34067;39.548;-76.088;2023-02-22T03:56:17;2;1;
31330;PMS5003;34067;39.548;-76.088;2023-02-22T03:58:49;3;2;
31330;PMS5003;34067;39.548;-76.088;2023-02-22T04:01:17;2;2;
31330;PMS5003;34067;39.548;-76.088;2023-02-22T04:03:46;2;2;
31330;PMS5003;34067;39.548;-76.088;2023-02-22T04:06:13;2;2;
31330;PMS5003;34067;39.548;-76.088;2023-02-22T04:08:42;2;1;
31330;PMS5003;34067;39.548;-76.088;2023-02-22T04:11:10;2;2;
31330;PMS5003;34067;39.548;-76.088;2023-02-22T04:13:38;2;2;
31330;PMS5003;34067;39.548;-76.088;2023-02-22T04:16:07;2;2;
31330;PMS5003;34067;39.548;-76.088;2023-02-22T04:18:36;2;2;
31330;PMS5003;34067;39.548;-76.088;2023-02-22T04:21:04;1;1;
31330;PMS5003;34067;39.548;-76.088;2023-02-22T04:23:32;3;2;
31330;PMS5003;34067;39.548;-76.088;2023-02-22T04:26:01;2;2;
31330;PMS5003;34067;39.548;-76.088;2023-02-22T04:28:29;2;2;
31330;PMS5003;34067;39.548;-76.088;2023-02-22T04:30:57;4;3;
31330;PMS5003;34067;39.548;-76.088;2023-02-22T04:33:25;3;2;
31330;PMS5003;34067;39.548;-76.088;2023-02-22T04:35:54;2;2;
31330;PMS5003;34067;39.548;-76.088;2023-02-22T04:38:22;3;3;
31330;PMS5003;34067;39.548;-76.088;2023-02-22T04:40:50;15;14;
31330;PMS5003;34067;39.548;-76.088;2023-02-22T04:43:19;23;23;
31330;PMS5003;34067;39.548;-76.088;2023-02-22T04:45:47;10;10;
31330;PMS5003;34067;39.548;-76.088;2023-02-22T04:48:15;38;36;
31330;PMS5003;34067;39.548;-76.088;2023-02-22T04:50:44;40;40;
31330;PMS5003;34067;39.548;-76.088;2023-02-22T04:53:12;30;30;
31330;PMS5003;34067;39.548;-76.088;2023-02-22T04:55:40;40;40;
31330;PMS5003;34067;39.548;-76.088;2023-02-22T04:58:08;22;22;
31330;PMS5003;34067;39.548;-76.088;2023-02-22T05:00:37;7;7;
31330;PMS5003;34067;39.548;-76.088;2023-02-22T05:03:05;9;9;
31330;PMS5003;34067;39.548;-76.088;2023-02-22T05:05:34;28;28;
31330;PMS5003;34067;39.548;-76.088;2023-02-22T05:08:02;10;10;
31330;PMS5003;34067;39.548;-76.088;2023-02-22T05:10:31;27;26;
31330;PMS5003;34067;39.548;-76.088;2023-02-22T05:12:58;9;7;
31330;PMS5003;34067;39.548;-76.088;2023-02-22T05:15:27;7;7;
31330;PMS5003;34067;39.548;-76.088;2023-02-22T05:17:55;21;20;
31330;PMS5003;34067;39.548;-76.088;2023-02-22T05:20:25;40;40;
31330;PMS5003;34067;39.548;-76.088;2023-02-22T05:22:55;9;7;
31330;PMS5003;34067;39.548;-76.088;2023-02-22T05:25:24;13;13;
31330;PMS5003;34067;39.548;-76.088;2023-02-22T05:27:53;6;5;
31330;PMS5003;34067;39.548;-76.088;2023-02-22T05:30:24;24;24;
31330;PMS5003;34067;39.548;-76.088;2023-02-22T05:32:54;30;28;
31330;PMS5003;34067;39.548;-76.088;2023-02-22T05:35:23;11;10;
31330;PMS5003;34067;39.548;-76.088;2023-02-22T05:37:51;9;7;
31330;PMS5003;34067;39.548;-76.088;2023-02-22T05:40:21;12;12;
31330;PMS5003;34067;39.548;-76.088;2023-02-22T05:42:51;28;28;
31330;PMS5003;34067;39.548;-76.088;2023-02-22T05:45:21;13;13;
31330;PMS5003;34067;39.548;-76.088;2023-02-22T05:47:51;10;9;
31330;PMS5003;34067;39.548;-76.088;2023-02-22T05:50:20;15;14;
31330;PMS5003;34067;39.548;-76.088;2023-02-22T05:52:49;10;9;
31330;PMS5003;34067;39.548;-76.088;2023-02-22T05:55:18;46;43;
31330;PMS5003;34067;39.548;-76.088;2023-02-22T05:57:48;1;1;
31330;PMS5003;34067;39.548;-76.088;2023-02-22T06:03:13;18;18;
31330;PMS5003;34067;39.548;-76.088;2023-02-22T06:05:41;15;15;
31330;PMS5003;34067;39.548;-76.088;2023-02-22T06:08:09;16;16;
31330;PMS5003;34067;39.548;-76.088;2023-02-22T06:10:37;39;39;
31330;PMS5003;34067;39.548;-76.088;2023-02-22T06:13:05;5;5;
31330;PMS5003;34067;39.548;-76.088;2023-02-22T06:15:34;2;2;
31330;PMS5003;34067;39.548;-76.088;2023-02-22T06:18:02;1;1;
31330;PMS5003;34067;39.548;-76.088;2023-02-22T06:20:30;2;1;
31330;PMS5003;34067;39.548;-76.088;2023-02-22T06:22:58;2;2;
31330;PMS5003;34067;39.548;-76.088;2023-02-22T06:25:28;4;3;
31330;PMS5003;34067;39.548;-76.088;2023-02-22T06:27:56;3;2;
31330;PMS5003;34067;39.548;-76.088;2023-02-22T06:30:26;3;3;
31330;PMS5003;34067;39.548;-76.088;2023-02-22T06:32:54;3;2;
31330;PMS5003;34067;39.548;-76.088;2023-02-22T06:35:22;3;3;
31330;PMS5003;34067;39.548;-76.088;2023-02-22T06:37:50;4;4;
31330;PMS5003;34067;39.548;-76.088;2023-02-22T06:40:19;3;3;
31330;PMS5003;34067;39.548;-76.088;2023-02-22T06:42:47;2;2;
31330;PMS5003;34067;39.548;-76.088;2023-02-22T06:45:16;3;3;
31330;PMS5003;34067;39.548;-76.088;2023-02-22T06:47:44;4;3;
31330;PMS5003;34067;39.548;-76.088;2023-02-22T06:50:17;3;3;
31330;PMS5003;34067;39.548;-76.088;2023-02-22T06:52:47;5;5;
31330;PMS5003;34067;39.548;-76.088;2023-02-22T06:55:16;5;4;
31330;PMS5003;34067;39.548;-76.088;2023-02-22T06:57:46;3;2;
31330;PMS5003;34067;39.548;-76.088;2023-02-22T07:00:15;5;4;
31330;PMS5003;34067;39.548;-76.088;2023-02-22T07:02:45;4;4;
31330;PMS5003;34067;39.548;-76.088;2023-02-22T07:05:14;4;3;
31330;PMS5003;34067;39.548;-76.088;2023-02-22T07:07:43;6;5;
31330;PMS5003;34067;39.548;-76.088;2023-02-22T07:10:15;4;4;
31330;PMS5003;34067;39.548;-76.088;2023-02-22T07:12:45;3;3;
31330;PMS5003;34067;39.548;-76.088;2023-02-22T07:15:13;3;3;
31330;PMS5003;34067;39.548;-76.088;2023-02-22T07:17:41;2;2;
31330;PMS5003;34067;39.548;-76.088;2023-02-22T07:20:10;4;3;
31330;PMS5003;34067;39.548;-76.088;2023-02-22T07:22:38;3;3;
31330;PMS5003;34067;39.548;-76.088;2023-02-22T07:25:07;2;2;
31330;PMS5003;34067;39.548;-76.088;2023-02-22T07:27:36;3;3;
31330;PMS5003;34067;39.548;-76.088;2023-02-22T07:30:05;3;3;
31330;PMS5003;34067;39.548;-76.088;2023-02-22T07:32:34;3;2;
31330;PMS5003;34067;39.548;-76.088;2023-02-22T07:35:01;3;3;
31330;PMS5003;34067;39.548;-76.088;2023-02-22T07:37:29;3;3;
31330;PMS5003;34067;39.548;-76.088;2023-02-22T07:39:57;3;3;
31330;PMS5003;34067;39.548;-76.088;2023-02-22T07:42:24;2;2;
31330;PMS5003;34067;39.548;-76.088;2023-02-22T07:44:52;1;1;
31330;PMS5003;34067;39.548;-76.088;2023-02-22T07:47:19;4;4;
31330;PMS5003;34067;39.548;-76.088;2023-02-22T07:49:48;4;3;
31330;PMS5003;34067;39.548;-76.088;2023-02-22T07:52:16;4;3;
31330;PMS5003;34067;39.548;-76.088;2023-02-22T07:54:44;2;2;
31330;PMS5003;34067;39.548;-76.088;2023-02-22T07:57:12;3;3;
31330;PMS5003;34067;39.548;-76.088;2023-02-22T07:59:41;3;3;
31330;PMS5003;34067;39.548;-76.088;2023-02-22T08:02:13;1;1;
31330;PMS5003;34067;39.548;-76.088;2023-02-22T08:04:42;2;2;
31330;PMS5003;34067;39.548;-76.088;2023-02-22T08:07:10;3;3;
31330;PMS5003;34067;39.548;-76.088;2023-02-22T08:09:37;3;3;
31330;PMS5003;34067;39.548;-76.088;2023-02-22T08:12:05;5;4;
31330;PMS5003;34067;39.548;-76.088;2023-02-22T08:14:33;4;4;
31330;PMS5003;34067;39.548;-76.088;2023-02-22T08:17:01;4;4;
31330;PMS5003;34067;39.548;-76.088;2023-02-22T08:19:29;3;3;
31330;PMS5003;34067;39.548;-76.088;2023-02-22T08:21:56;3;2;
31330;PMS5003;34067;39.548;-76.088;2023-02-22T08:24:24;3;2;
31330;PMS5003;34067;39.548;-76.088;2023-02-22T08:26:51;5;4;
31330;PMS5003;34067;39.548;-76.088;2023-02-22T08:29:20;3;3;
31330;PMS5003;34067;39.548;-76.088;2023-02-22T08:31:49;6;4;
31330;PMS5003;34067;39.548;-76.088;2023-02-22T08:34:18;3;3;
31330;PMS5003;34067;39.548;-76.088;2023-02-22T08:36:46;4;4;
31330;PMS5003;34067;39.548;-76.088;2023-02-22T08:39:13;6;4;
31330;PMS5003;34067;39.548;-76.088;2023-02-22T08:41:41;20;18;
31330;PMS5003;34067;39.548;-76.088;2023-02-22T08:44:08;5;4;
31330;PMS5003;34067;39.548;-76.088;2023-02-22T08:46:37;3;3;
31330;PMS5003;34067;39.548;-76.088;2023-02-22T08:49:04;5;5;
31330;PMS5003;34067;39.548;-76.088;2023-02-22T08:51:33;6;6;
31330;PMS5003;34067;39.548;-76.088;2023-02-22T08:54:01;5;5;
31330;PMS5003;34067;39.548;-76.088;2023-02-22T08:56:29;8;8;
31330;PMS5003;34067;39.548;-76.088;2023-02-22T08:58:56;8;8;
31330;PMS5003;34067;39.548;-76.088;2023-02-22T09:01:24;4;4;
31330;PMS5003;34067;39.548;-76.088;2023-02-22T09:03:52;5;4;
31330;PMS5003;34067;39.548;-76.088;2023-02-22T09:06:20;4;3;
31330;PMS5003;34067;39.548;-76.088;2023-02-22T09:08:49;6;5;
31330;PMS5003;34067;39.548;-76.088;2023-02-22T09:11:17;13;13;
31330;PMS5003;34067;39.548;-76.088;2023-02-22T09:13:46;10;10;
31330;PMS5003;34067;39.548;-76.088;2023-02-22T09:16:14;12;11;
31330;PMS5003;34067;39.548;-76.088;2023-02-22T09:18:42;11;11;
31330;PMS5003;34067;39.548;-76.088;2023-02-22T09:21:10;35;33;
31330;PMS5003;34067;39.548;-76.088;2023-02-22T09:23:38;31;31;
31330;PMS5003;34067;39.548;-76.088;2023-02-22T09:26:06;10;10;
31330;PMS5003;34067;39.548;-76.088;2023-02-22T09:28:35;7;7;
31330;PMS5003;34067;39.548;-76.088;2023-02-22T09:31:03;5;4;
31330;PMS5003;34067;39.548;-76.088;2023-02-22T09:33:32;3;3;
31330;PMS5003;34067;39.548;-76.088;2023-02-22T09:36:01;5;5;
31330;PMS5003;34067;39.548;-76.088;2023-02-22T09:38:28;3;3;
31330;PMS5003;34067;39.548;-76.088;2023-02-22T09:41:00;4;3;
31330;PMS5003;34067;39.548;-76.088;2023-02-22T09:43:40;3;3;
31330;PMS5003;34067;39.548;-76.088;2023-02-22T09:46:19;3;3;
31330;PMS5003;34067;39.548;-76.088;2023-02-22T09:48:55;3;3;
31330;PMS5003;34067;39.548;-76.088;2023-02-22T09:51:30;3;2;
31330;PMS5003;34067;39.548;-76.088;2023-02-22T09:54:15;4;4;
31330;PMS5003;34067;39.548;-76.088;2023-02-22T09:56:49;4;4;
31330;PMS5003;34067;39.548;-76.088;2023-02-22T09:59:22;3;3;
31330;PMS5003;34067;39.548;-76.088;2023-02-22T10:01:59;5;5;
31330;PMS5003;34067;39.548;-76.088;2023-02-22T10:04:40;3;3;
31330;PMS5003;34067;39.548;-76.088;2023-02-22T10:07:16;17;17;
31330;PMS5003;34067;39.548;-76.088;2023-02-22T10:09:47;43;43;
31330;PMS5003;34067;39.548;-76.088;2023-02-22T10:12:22;34;34;
31330;PMS5003;34067;39.548;-76.088;2023-02-22T10:15:05;9;9;
31330;PMS5003;34067;39.548;-76.088;2023-02-22T10:17:50;5;5;
31330;PMS5003;34067;39.548;-76.088;2023-02-22T10:20:34;5;4;
31330;PMS5003;34067;39.548;-76.088;2023-02-22T10:23:16;4;4;
31330;PMS5003;34067;39.548;-76.088;2023-02-22T10:25:49;4;4;
31330;PMS5003;34067;39.548;-76.088;2023-02-22T10:28:23;6;6;
31330;PMS5003;34067;39.548;-76.088;2023-02-22T10:31:02;6;6;
31330;PMS5003;34067;39.548;-76.088;2023-02-22T10:33:35;4;4;
31330;PMS5003;34067;39.548;-76.088;2023-02-22T10:36:08;3;3;
31330;PMS5003;34067;39.548;-76.088;2023-02-22T10:38:44;5;5;
31330;PMS5003;34067;39.548;-76.088;2023-02-22T10:41:20;5;4;
31330;PMS5003;34067;39.548;-76.088;2023-02-22T10:43:54;15;13;
31330;PMS5003;34067;39.548;-76.088;2023-02-22T10:46:23;24;24;
31330;PMS5003;34067;39.548;-76.088;2023-02-22T10:48:59;30;28;
31330;PMS5003;34067;39.548;-76.088;2023-02-22T10:51:30;27;26;
31330;PMS5003;34067;39.548;-76.088;2023-02-22T10:54:03;23;21;
31330;PMS5003;34067;39.548;-76.088;2023-02-22T10:56:47;5;5;
31330;PMS5003;34067;39.548;-76.088;2023-02-22T10:59:33;6;5;
31330;PMS5003;34067;39.548;-76.088;2023-02-22T11:02:12;6;6;
31330;PMS5003;34067;39.548;-76.088;2023-02-22T11:04:46;4;4;
31330;PMS5003;34067;39.548;-76.088;2023-02-22T11:07:18;5;5;
31330;PMS5003;34067;39.548;-76.088;2023-02-22T11:09:50;8;6;
31330;PMS5003;34067;39.548;-76.088;2023-02-22T11:12:20;8;8;
31330;PMS5003;34067;39.548;-76.088;2023-02-22T11:14:52;5;5;
31330;PMS5003;34067;39.548;-76.088;2023-02-22T11:17:25;7;7;
31330;PMS5003;34067;39.548;-76.088;2023-02-22T11:19:57;5;5;
31330;PMS5003;34067;39.548;-76.088;2023-02-22T11:22:26;6;6;
31330;PMS5003;34067;39.548;-76.088;2023-02-22T11:24:58;9;7;
31330;PMS5003;34067;39.548;-76.088;2023-02-22T11:27:31;9;9;
31330;PMS5003;34067;39.548;-76.088;2023-02-22T11:30:10;6;5;
31330;PMS5003;34067;39.548;-76.088;2023-02-22T11:32:48;7;5;
31330;PMS5003;34067;39.548;-76.088;2023-02-22T11:35:29;7;7;
31330;PMS5003;34067;39.548;-76.088;2023-02-22T11:38:27;9;7;
31330;PMS5003;34067;39.548;-76.088;2023-02-22T11:41:06;9;7;
31330;PMS5003;34067;39.548;-76.088;2023-02-22T11:43:39;7;6;
31330;PMS5003;34067;39.548;-76.088;2023-02-22T11:46:10;7;7;
31330;PMS5003;34067;39.548;-76.088;2023-02-22T11:48:43;9;7;
31330;PMS5003;34067;39.548;-76.088;2023-02-22T11:51:28;9;9;
31330;PMS5003;34067;39.548;-76.088;2023-02-22T11:54:13;9;7;
31330;PMS5003;34067;39.548;-76.088;2023-02-22T11:56:49;6;6;
31330;PMS5003;34067;39.548;-76.088;2023-02-22T11:59:23;7;7;
31330;PMS5003;34067;39.548;-76.088;2023-02-22T12:02:03;7;7;
31330;PMS5003;34067;39.548;-76.088;2023-02-22T12:04:51;9;7;
31330;PMS5003;34067;39.548;-76.088;2023-02-22T12:07:38;7;7;
31330;PMS5003;34067;39.548;-76.088;2023-02-22T12:10:21;9;6;
31330;PMS5003;34067;39.548;-76.088;2023-02-22T12:13:00;4;4;
31330;PMS5003;34067;39.548;-76.088;2023-02-22T12:15:41;9;6;
31330;PMS5003;34067;39.548;-76.088;2023-02-22T12:18:20;6;5;
31330;PMS5003;34067;39.548;-76.088;2023-02-22T12:20:57;6;6;
31330;PMS5003;34067;39.548;-76.088;2023-02-22T12:23:29;7;6;
31330;PMS5003;34067;39.548;-76.088;2023-02-22T12:26:08;7;6;
31330;PMS5003;34067;39.548;-76.088;2023-02-22T12:28:40;10;7;
31330;PMS5003;34067;39.548;-76.088;2023-02-22T12:31:14;6;6;
31330;PMS5003;34067;39.548;-76.088;2023-02-22T12:33:50;6;6;
31330;PMS5003;34067;39.548;-76.088;2023-02-22T12:36:26;11;10;
31330;PMS5003;34067;39.548;-76.088;2023-02-22T12:39:03;19;19;
31330;PMS5003;34067;39.548;-76.088;2023-02-22T12:41:49;85;85;
31330;PMS5003;34067;39.548;-76.088;2023-02-22T12:44:23;54;51;
31330;PMS5003;34067;39.548;-76.088;2023-02-22T12:46:56;43;42;
31330;PMS5003;34067;39.548;-76.088;2023-02-22T12:49:27;64;62;
31330;PMS5003;34067;39.548;-76.088;2023-02-22T12:52:02;35;34;
31330;PMS5003;34067;39.548;-76.088;2023-02-22T12:54:39;26;25;
31330;PMS5003;34067;39.548;-76.088;2023-02-22T12:57:14;28;28;
31330;PMS5003;34067;39.548;-76.088;2023-02-22T12:59:51;27;26;
31330;PMS5003;34067;39.548;-76.088;2023-02-22T13:02:25;14;14;
31330;PMS5003;34067;39.548;-76.088;2023-02-22T13:04:59;7;7;
31330;PMS5003;34067;39.548;-76.088;2023-02-22T13:07:33;6;6;
31330;PMS5003;34067;39.548;-76.088;2023-02-22T13:10:17;4;4;
31330;PMS5003;34067;39.548;-76.088;2023-02-22T13:12:56;6;6;
31330;PMS5003;34067;39.548;-76.088;2023-02-22T13:15:34;8;7;
31330;PMS5003;34067;39.548;-76.088;2023-02-22T13:18:09;7;6;
31330;PMS5003;34067;39.548;-76.088;2023-02-22T13:20:46;6;6;
31330;PMS5003;34067;39.548;-76.088;2023-02-22T13:23:23;8;7;
31330;PMS5003;34067;39.548;-76.088;2023-02-22T13:26:04;9;8;
31330;PMS5003;34067;39.548;-76.088;2023-02-22T13:28:42;6;6;
31330;PMS5003;34067;39.548;-76.088;2023-02-22T13:31:21;6;6;
31330;PMS5003;34067;39.548;-76.088;2023-02-22T13:34:05;6;6;
31330;PMS5003;34067;39.548;-76.088;2023-02-22T13:36:52;8;8;
31330;PMS5003;34067;39.548;-76.088;2023-02-22T13:39:39;8;8;
31330;PMS5003;34067;39.548;-76.088;2023-02-22T13:42:35;9;7;
31330;PMS5003;34067;39.548;-76.088;2023-02-22T13:45:25;7;7;
31330;PMS5003;34067;39.548;-76.088;2023-02-22T13:48:14;8;6;
31330;PMS5003;34067;39.548;-76.088;2023-02-22T13:51:08;7;7;
31330;PMS5003;34067;39.548;-76.088;2023-02-22T13:53:47;6;6;
31330;PMS5003;34067;39.548;-76.088;2023-02-22T13:56:20;7;6;
31330;PMS5003;34067;39.548;-76.088;2023-02-22T13:58:50;5;5;
31330;PMS5003;34067;39.548;-76.088;2023-02-22T14:01:38;5;5;
31330;PMS5003;34067;39.548;-76.088;2023-02-22T14:04:19;7;6;
31330;PMS5003;34067;39.548;-76.088;2023-02-22T14:06:58;7;6;
31330;PMS5003;34067;39.548;-76.088;2023-02-22T14:09:45;6;6;
31330;PMS5003;34067;39.548;-76.088;2023-02-22T14:13:04;6;6;
31330;PMS5003;34067;39.548;-76.088;2023-02-22T14:15:33;7;6;
31330;PMS5003;34067;39.548;-76.088;2023-02-22T14:18:01;6;6;
31330;PMS5003;34067;39.548;-76.088;2023-02-22T14:20:31;7;7;
31330;PMS5003;34067;39.548;-76.088;2023-02-22T14:23:33;6;5;
31330;PMS5003;34067;39.548;-76.088;2023-02-22T14:26:11;5;5;
31330;PMS5003;34067;39.548;-76.088;2023-02-22T14:28:47;6;4;
31330;PMS5003;34067;39.548;-76.088;2023-02-22T14:31:21;6;6;
31330;PMS5003;34067;39.548;-76.088;2023-02-22T14:33:55;7;6;
31330;PMS5003;34067;39.548;-76.088;2023-02-22T14:36:29;6;6;
31330;PMS5003;34067;39.548;-76.088;2023-02-22T14:39:07;7;6;
31330;PMS5003;34067;39.548;-76.088;2023-02-22T14:41:40;6;6;
31330;PMS5003;34067;39.548;-76.088;2023-02-22T14:44:14;6;6;
31330;PMS5003;34067;39.548;-76.088;2023-02-22T14:46:47;5;5;
31330;PMS5003;34067;39.548;-76.088;2023-02-22T14:49:20;7;7;
31330;PMS5003;34067;39.548;-76.088;2023-02-22T14:51:54;8;8;
31330;PMS5003;34067;39.548;-76.088;2023-02-22T14:54:29;8;8;
31330;PMS5003;34067;39.548;-76.088;2023-02-22T14:57:05;9;9;
31330;PMS5003;34067;39.548;-76.088;2023-02-22T14:59:45;9;9;
31330;PMS5003;34067;39.548;-76.088;2023-02-22T15:02:21;8;8;
31330;PMS5003;34067;39.548;-76.088;2023-02-22T15:04:50;8;8;
31330;PMS5003;34067;39.548;-76.088;2023-02-22T15:07:22;8;7;
31330;PMS5003;34067;39.548;-76.088;2023-02-22T15:09:54;8;8;
31330;PMS5003;34067;39.548;-76.088;2023-02-22T15:12:33;7;7;
31330;PMS5003;34067;39.548;-76.088;2023-02-22T15:15:17;8;8;
31330;PMS5003;34067;39.548;-76.088;2023-02-22T15:17:47;7;7;
31330;PMS5003;34067;39.548;-76.088;2023-02-22T15:20:21;7;7;
31330;PMS5003;34067;39.548;-76.088;2023-02-22T15:22:51;7;7;
31330;PMS5003;34067;39.548;-76.088;2023-02-22T15:25:26;10;9;
31330;PMS5003;34067;39.548;-76.088;2023-02-22T15:27:59;11;10;
31330;PMS5003;34067;39.548;-76.088;2023-02-22T15:30:31;9;9;
31330;PMS5003;34067;39.548;-76.088;2023-02-22T15:33:12;7;7;
31330;PMS5003;34067;39.548;-76.088;2023-02-22T15:35:41;9;9;
31330;PMS5003;34067;39.548;-76.088;2023-02-22T15:38:17;7;7;
31330;PMS5003;34067;39.548;-76.088;2023-02-22T15:40:54;8;7;
31330;PMS5003;34067;39.548;-76.088;2023-02-22T15:43:26;10;9;
31330;PMS5003;34067;39.548;-76.088;2023-02-22T15:45:55;10;8;
31330;PMS5003;34067;39.548;-76.088;2023-02-22T15:48:24;9;9;
31330;PMS5003;34067;39.548;-76.088;2023-02-22T15:51:01;9;9;
31330;PMS5003;34067;39.548;-76.088;2023-02-22T15:53:36;8;7;
31330;PMS5003;34067;39.548;-76.088;2023-02-22T15:56:08;8;7;
31330;PMS5003;34067;39.548;-76.088;2023-02-22T15:58:40;10;8;
31330;PMS5003;34067;39.548;-76.088;2023-02-22T16:01:11;9;8;
31330;PMS5003;34067;39.548;-76.088;2023-02-22T16:03:42;11;10;
31330;PMS5003;34067;39.548;-76.088;2023-02-22T16:06:14;8;8;
31330;PMS5003;34067;39.548;-76.088;2023-02-22T16:08:50;10;9;
31330;PMS5003;34067;39.548;-76.088;2023-02-22T16:11:21;10;9;
31330;PMS5003;34067;39.548;-76.088;2023-02-22T16:13:52;10;10;
31330;PMS5003;34067;39.548;-76.088;2023-02-22T16:16:24;8;7;
31330;PMS5003;34067;39.548;-76.088;2023-02-22T16:19:31;8;8;
31330;PMS5003;34067;39.548;-76.088;2023-02-22T16:22:05;12;10;
31330;PMS5003;34067;39.548;-76.088;2023-02-22T16:24:48;10;10;
31330;PMS5003;34067;39.548;-76.088;2023-02-22T16:27:17;8;8;
31330;PMS5003;34067;39.548;-76.088;2023-02-22T16:30:01;11;11;
31330;PMS5003;34067;39.548;-76.088;2023-02-22T16:32:33;10;9;
31330;PMS5003;34067;39.548;-76.088;2023-02-22T16:35:01;9;9;
31330;PMS5003;34067;39.548;-76.088;2023-02-22T16:37:29;9;8;
31330;PMS5003;34067;39.548;-76.088;2023-02-22T16:39:57;10;9;
31330;PMS5003;34067;39.548;-76.088;2023-02-22T16:42:25;11;10;
31330;PMS5003;34067;39.548;-76.088;2023-02-22T16:44:53;10;10;
31330;PMS5003;34067;39.548;-76.088;2023-02-22T16:47:21;9;9;
31330;PMS5003;34067;39.548;-76.088;2023-02-22T16:49:50;10;8;
31330;PMS5003;34067;39.548;-76.088;2023-02-22T16:52:18;9;9;